sensor_id;sensor_type;location;lat;lon;timestamp;pressure;altitude;pressure_sealevel;temperature;humidity
37610;BME280;23457;51.966;8.230;2022-11-14T00:00:15;101088.47;;;5.82;96.17
37610;BME280;23457;51.966;8.230;2022-11-14T00:03:02;101067.50;;;5.95;94.32
37610;BME280;23457;51.966;8.230;2022-11-14T00:05:47;101081.69;;;5.86;95.08
37610;BME280;23457;51.966;8.230;2022-11-14T00:08:33;101075.66;;;5.85;95.13
37610;BME280;23457;51.966;8.230;2022-11-14T00:11:18;101075.22;;;5.94;93.91
37610;BME280;23457;51.966;8.230;2022-11-14T00:14:05;101072.56;;;5.92;94.10
37610;BME280;23457;51.966;8.230;2022-11-14T00:16:50;101077.72;;;5.92;92.75
37610;BME280;23457;51.966;8.230;2022-11-14T00:19:35;101070.81;;;5.91;94.34
37610;BME280;23457;51.966;8.230;2022-11-14T00:22:21;101060.19;;;5.85;94.10
37610;BME280;23457;51.966;8.230;2022-11-14T00:25:06;101074.28;;;5.72;94.43
37610;BME280;23457;51.966;8.230;2022-11-14T00:27:55;101062.69;;;5.84;94.46
37610;BME280;23457;51.966;8.230;2022-11-14T00:30:44;101072.97;;;5.82;95.16
37610;BME280;23457;51.966;8.230;2022-11-14T00:33:29;101065.59;;;5.70;95.52
37610;BME280;23457;51.966;8.230;2022-11-14T00:36:15;101061.22;;;5.89;94.39
37610;BME280;23457;51.966;8.230;2022-11-14T00:39:00;101060.09;;;5.82;93.68
37610;BME280;23457;51.966;8.230;2022-11-14T00:41:45;101051.13;;;5.74;93.94
37610;BME280;23457;51.966;8.230;2022-11-14T00:44:31;101049.31;;;5.51;95.71
37610;BME280;23457;51.966;8.230;2022-11-14T00:47:16;101046.00;;;5.53;95.76
37610;BME280;23457;51.966;8.230;2022-11-14T00:50:02;101044.97;;;5.50;97.24
37610;BME280;23457;51.966;8.230;2022-11-14T00:52:48;101042.69;;;5.57;96.31
37610;BME280;23457;51.966;8.230;2022-11-14T00:55:34;101028.31;;;5.62;96.58
37610;BME280;23457;51.966;8.230;2022-11-14T00:58:19;101021.31;;;5.60;95.83
37610;BME280;23457;51.966;8.230;2022-11-14T01:01:04;101025.34;;;5.32;97.53
37610;BME280;23457;51.966;8.230;2022-11-14T01:03:50;101017.13;;;5.41;97.80
37610;BME280;23457;51.966;8.230;2022-11-14T01:06:36;101016.19;;;5.39;98.17
37610;BME280;23457;51.966;8.230;2022-11-14T01:09:21;101013.97;;;5.27;98.72
37610;BME280;23457;51.966;8.230;2022-11-14T01:12:06;101013.31;;;5.31;98.78
37610;BME280;23457;51.966;8.230;2022-11-14T01:14:52;101007.56;;;5.59;97.53
37610;BME280;23457;51.966;8.230;2022-11-14T01:17:37;101005.72;;;5.78;96.19
37610;BME280;23457;51.966;8.230;2022-11-14T01:20:22;100996.41;;;5.81;94.38
37610;BME280;23457;51.966;8.230;2022-11-14T01:23:09;100987.75;;;5.79;93.72
37610;BME280;23457;51.966;8.230;2022-11-14T01:26:03;100987.34;;;5.70;93.95
37610;BME280;23457;51.966;8.230;2022-11-14T01:28:49;100984.75;;;5.68;93.68
37610;BME280;23457;51.966;8.230;2022-11-14T01:31:34;100979.88;;;5.76;93.12
37610;BME280;23457;51.966;8.230;2022-11-14T01:34:19;100978.56;;;5.65;92.77
37610;BME280;23457;51.966;8.230;2022-11-14T01:37:05;100970.56;;;5.59;93.38
37610;BME280;23457;51.966;8.230;2022-11-14T01:39:50;100973.88;;;5.55;92.97
37610;BME280;23457;51.966;8.230;2022-11-14T01:42:35;100976.69;;;5.61;92.02
37610;BME280;23457;51.966;8.230;2022-11-14T01:46:01;100966.50;;;5.64;92.37
37610;BME280;23457;51.966;8.230;2022-11-14T01:49:04;100962.03;;;5.60;92.10
37610;BME280;23457;51.966;8.230;2022-11-14T01:52:00;100968.94;;;5.61;91.86
37610;BME280;23457;51.966;8.230;2022-11-14T01:54:49;100964.38;;;5.54;91.31
37610;BME280;23457;51.966;8.230;2022-11-14T01:57:38;100954.75;;;5.50;92.06
37610;BME280;23457;51.966;8.230;2022-11-14T02:00:24;100945.31;;;5.50;93.59
37610;BME280;23457;51.966;8.230;2022-11-14T02:03:12;100945.09;;;5.44;94.08
37610;BME280;23457;51.966;8.230;2022-11-14T02:05:59;100924.50;;;5.46;94.75
37610;BME280;23457;51.966;8.230;2022-11-14T02:08:47;100926.16;;;5.44;94.74
37610;BME280;23457;51.966;8.230;2022-11-14T02:11:36;100930.78;;;5.30;95.68
37610;BME280;23457;51.966;8.230;2022-11-14T02:14:23;100917.56;;;5.22;96.09
37610;BME280;23457;51.966;8.230;2022-11-14T02:17:08;100910.31;;;5.34;95.81
37610;BME280;23457;51.966;8.230;2022-11-14T02:20:18;100897.34;;;5.31;96.08
37610;BME280;23457;51.966;8.230;2022-11-14T02:23:04;100908.16;;;5.45;94.93
37610;BME280;23457;51.966;8.230;2022-11-14T02:25:49;100909.22;;;5.50;95.22
37610;BME280;23457;51.966;8.230;2022-11-14T02:28:34;100891.91;;;5.25;95.59
37610;BME280;23457;51.966;8.230;2022-11-14T02:31:20;100908.38;;;5.29;95.40
37610;BME280;23457;51.966;8.230;2022-11-14T02:34:05;100902.50;;;5.33;94.66
37610;BME280;23457;51.966;8.230;2022-11-14T02:36:51;100899.50;;;5.22;96.27
37610;BME280;23457;51.966;8.230;2022-11-14T02:39:36;100910.22;;;5.31;95.77
37610;BME280;23457;51.966;8.230;2022-11-14T02:42:22;100908.72;;;5.16;96.63
37610;BME280;23457;51.966;8.230;2022-11-14T02:45:10;100911.22;;;5.14;97.50
37610;BME280;23457;51.966;8.230;2022-11-14T02:47:56;100911.03;;;5.30;97.00
37610;BME280;23457;51.966;8.230;2022-11-14T02:50:41;100901.69;;;5.34;96.53
37610;BME280;23457;51.966;8.230;2022-11-14T02:53:26;100898.56;;;5.20;97.16
37610;BME280;23457;51.966;8.230;2022-11-14T02:56:12;100884.31;;;5.08;98.24
37610;BME280;23457;51.966;8.230;2022-11-14T02:58:57;100892.53;;;5.20;98.68
37610;BME280;23457;51.966;8.230;2022-11-14T03:01:42;100887.03;;;5.11;98.51
37610;BME280;23457;51.966;8.230;2022-11-14T03:04:27;100865.06;;;5.20;98.73
37610;BME280;23457;51.966;8.230;2022-11-14T03:07:13;100878.28;;;5.07;97.96
37610;BME280;23457;51.966;8.230;2022-11-14T03:09:58;100877.22;;;5.02;99.11
37610;BME280;23457;51.966;8.230;2022-11-14T03:12:43;100874.78;;;5.05;99.05
37610;BME280;23457;51.966;8.230;2022-11-14T03:15:29;100870.88;;;5.15;98.71
37610;BME280;23457;51.966;8.230;2022-11-14T03:18:14;100877.78;;;5.16;98.75
37610;BME280;23457;51.966;8.230;2022-11-14T03:23:54;100872.41;;;4.89;99.05
37610;BME280;23457;51.966;8.230;2022-11-14T03:26:39;100868.75;;;4.84;100.00
37610;BME280;23457;51.966;8.230;2022-11-14T03:29:25;100866.97;;;5.24;98.25
37610;BME280;23457;51.966;8.230;2022-11-14T03:32:10;100860.63;;;5.16;97.66
37610;BME280;23457;51.966;8.230;2022-11-14T03:34:55;100857.53;;;5.25;97.64
37610;BME280;23457;51.966;8.230;2022-11-14T03:37:40;100856.66;;;5.24;97.77
37610;BME280;23457;51.966;8.230;2022-11-14T03:40:26;100852.63;;;5.31;97.30
37610;BME280;23457;51.966;8.230;2022-11-14T03:43:11;100856.03;;;5.09;98.66
37610;BME280;23457;51.966;8.230;2022-11-14T03:45:58;100847.38;;;5.07;98.09
37610;BME280;23457;51.966;8.230;2022-11-14T03:48:44;100841.09;;;5.00;98.68
37610;BME280;23457;51.966;8.230;2022-11-14T03:51:29;100855.03;;;5.26;97.66
37610;BME280;23457;51.966;8.230;2022-11-14T03:54:14;100847.16;;;5.23;97.05
37610;BME280;23457;51.966;8.230;2022-11-14T03:57:00;100852.66;;;5.32;96.88
37610;BME280;23457;51.966;8.230;2022-11-14T03:59:45;100843.56;;;5.40;95.35
37610;BME280;23457;51.966;8.230;2022-11-14T04:02:30;100839.16;;;5.16;97.09
37610;BME280;23457;51.966;8.230;2022-11-14T04:05:16;100839.69;;;5.29;96.82
37610;BME280;23457;51.966;8.230;2022-11-14T04:08:04;100837.47;;;5.38;96.17
37610;BME280;23457;51.966;8.230;2022-11-14T04:10:49;100831.25;;;5.56;95.34
37610;BME280;23457;51.966;8.230;2022-11-14T04:13:34;100824.69;;;5.42;94.87
37610;BME280;23457;51.966;8.230;2022-11-14T04:16:20;100827.00;;;5.58;94.72
37610;BME280;23457;51.966;8.230;2022-11-14T04:19:05;100826.97;;;5.56;94.85
37610;BME280;23457;51.966;8.230;2022-11-14T04:21:50;100817.78;;;5.40;94.87
37610;BME280;23457;51.966;8.230;2022-11-14T04:24:35;100821.41;;;5.46;95.70
37610;BME280;23457;51.966;8.230;2022-11-14T04:27:20;100818.13;;;5.50;94.60
37610;BME280;23457;51.966;8.230;2022-11-14T04:30:06;100811.16;;;5.69;93.86
37610;BME280;23457;51.966;8.230;2022-11-14T04:32:51;100815.06;;;5.60;93.54
37610;BME280;23457;51.966;8.230;2022-11-14T04:35:37;100819.91;;;5.74;92.45
37610;BME280;23457;51.966;8.230;2022-11-14T04:38:22;100802.34;;;5.64;92.66
37610;BME280;23457;51.966;8.230;2022-11-14T04:41:07;100820.59;;;5.69;92.18
37610;BME280;23457;51.966;8.230;2022-11-14T04:43:53;100820.81;;;5.53;94.03
37610;BME280;23457;51.966;8.230;2022-11-14T04:46:38;100816.16;;;5.43;94.62
37610;BME280;23457;51.966;8.230;2022-11-14T04:49:23;100814.47;;;5.45;94.74
37610;BME280;23457;51.966;8.230;2022-11-14T04:52:09;100807.00;;;5.51;94.58
37610;BME280;23457;51.966;8.230;2022-11-14T04:54:54;100797.50;;;5.50;94.43
37610;BME280;23457;51.966;8.230;2022-11-14T04:57:39;100802.16;;;5.60;93.67
37610;BME280;23457;51.966;8.230;2022-11-14T05:00:24;100801.47;;;5.64;93.16
37610;BME280;23457;51.966;8.230;2022-11-14T05:03:10;100787.31;;;5.53;92.57
37610;BME280;23457;51.966;8.230;2022-11-14T05:05:59;100796.88;;;5.55;92.02
37610;BME280;23457;51.966;8.230;2022-11-14T05:08:44;100786.75;;;5.61;91.67
37610;BME280;23457;51.966;8.230;2022-11-14T05:11:30;100790.84;;;5.55;92.23
37610;BME280;23457;51.966;8.230;2022-11-14T05:14:15;100775.25;;;5.52;91.57
37610;BME280;23457;51.966;8.230;2022-11-14T05:17:00;100786.84;;;5.40;91.39
37610;BME280;23457;51.966;8.230;2022-11-14T05:19:46;100791.66;;;5.31;91.44
37610;BME280;23457;51.966;8.230;2022-11-14T05:22:31;100789.13;;;5.33;91.49
37610;BME280;23457;51.966;8.230;2022-11-14T05:25:16;100795.00;;;5.29;90.95
37610;BME280;23457;51.966;8.230;2022-11-14T05:28:02;100789.78;;;5.27;91.01
37610;BME280;23457;51.966;8.230;2022-11-14T05:30:47;100794.81;;;5.24;90.79
37610;BME280;23457;51.966;8.230;2022-11-14T05:33:33;100797.19;;;5.20;91.35
37610;BME280;23457;51.966;8.230;2022-11-14T05:36:18;100796.34;;;5.19;91.25
37610;BME280;23457;51.966;8.230;2022-11-14T05:39:04;100792.44;;;5.08;91.97
37610;BME280;23457;51.966;8.230;2022-11-14T05:41:49;100785.66;;;5.10;91.86
37610;BME280;23457;51.966;8.230;2022-11-14T05:44:34;100786.41;;;5.08;91.79
37610;BME280;23457;51.966;8.230;2022-11-14T05:47:20;100787.59;;;4.93;92.45
37610;BME280;23457;51.966;8.230;2022-11-14T05:50:05;100790.69;;;5.07;92.35
37610;BME280;23457;51.966;8.230;2022-11-14T05:52:51;100783.91;;;5.09;92.40
37610;BME280;23457;51.966;8.230;2022-11-14T05:55:36;100789.19;;;5.12;92.38
37610;BME280;23457;51.966;8.230;2022-11-14T05:58:21;100790.19;;;5.16;91.66
37610;BME280;23457;51.966;8.230;2022-11-14T06:01:12;100785.66;;;5.10;92.25
37610;BME280;23457;51.966;8.230;2022-11-14T06:03:58;100789.19;;;5.12;91.77
37610;BME280;23457;51.966;8.230;2022-11-14T06:06:43;100788.38;;;5.13;92.90
37610;BME280;23457;51.966;8.230;2022-11-14T06:09:28;100793.88;;;5.00;93.01
37610;BME280;23457;51.966;8.230;2022-11-14T06:12:13;100787.91;;;5.01;93.88
37610;BME280;23457;51.966;8.230;2022-11-14T06:14:59;100791.16;;;4.97;95.29
37610;BME280;23457;51.966;8.230;2022-11-14T06:17:44;100784.19;;;4.94;96.72
37610;BME280;23457;51.966;8.230;2022-11-14T06:20:29;100785.78;;;5.13;95.51
37610;BME280;23457;51.966;8.230;2022-11-14T06:23:15;100790.31;;;5.19;95.18
37610;BME280;23457;51.966;8.230;2022-11-14T06:26:09;100790.06;;;5.35;94.56
37610;BME280;23457;51.966;8.230;2022-11-14T06:28:57;100788.31;;;5.34;94.59
37610;BME280;23457;51.966;8.230;2022-11-14T06:31:42;100781.50;;;5.36;93.42
37610;BME280;23457;51.966;8.230;2022-11-14T06:34:28;100784.63;;;5.27;93.91
37610;BME280;23457;51.966;8.230;2022-11-14T06:37:13;100782.41;;;5.14;94.27
37610;BME280;23457;51.966;8.230;2022-11-14T06:39:58;100785.91;;;5.16;93.47
37610;BME280;23457;51.966;8.230;2022-11-14T06:42:43;100782.94;;;5.06;94.11
37610;BME280;23457;51.966;8.230;2022-11-14T06:45:29;100777.47;;;5.20;93.91
37610;BME280;23457;51.966;8.230;2022-11-14T06:48:14;100777.72;;;5.26;94.13
37610;BME280;23457;51.966;8.230;2022-11-14T06:51:00;100776.78;;;5.24;94.26
37610;BME280;23457;51.966;8.230;2022-11-14T06:53:46;100783.41;;;5.18;94.12
37610;BME280;23457;51.966;8.230;2022-11-14T06:56:31;100793.03;;;5.01;94.34
37610;BME280;23457;51.966;8.230;2022-11-14T06:59:16;100792.34;;;5.05;94.33
37610;BME280;23457;51.966;8.230;2022-11-14T07:02:01;100784.69;;;5.07;94.99
37610;BME280;23457;51.966;8.230;2022-11-14T07:04:47;100776.09;;;5.06;95.66
37610;BME280;23457;51.966;8.230;2022-11-14T07:07:32;100774.25;;;5.03;95.99
37610;BME280;23457;51.966;8.230;2022-11-14T07:10:18;100771.63;;;5.02;96.29
37610;BME280;23457;51.966;8.230;2022-11-14T07:13:03;100763.19;;;5.28;95.61
37610;BME280;23457;51.966;8.230;2022-11-14T07:15:52;100766.88;;;5.35;95.65
37610;BME280;23457;51.966;8.230;2022-11-14T07:18:37;100776.84;;;5.26;95.69
37610;BME280;23457;51.966;8.230;2022-11-14T07:21:24;100774.53;;;5.33;96.39
37610;BME280;23457;51.966;8.230;2022-11-14T07:24:09;100776.75;;;5.47;95.02
37610;BME280;23457;51.966;8.230;2022-11-14T07:26:55;100756.63;;;5.36;95.86
37610;BME280;23457;51.966;8.230;2022-11-14T07:29:40;100763.88;;;5.47;95.58
37610;BME280;23457;51.966;8.230;2022-11-14T07:32:25;100767.75;;;5.35;96.25
37610;BME280;23457;51.966;8.230;2022-11-14T07:35:11;100757.50;;;5.37;96.85
37610;BME280;23457;51.966;8.230;2022-11-14T07:38:03;100758.69;;;5.69;95.91
37610;BME280;23457;51.966;8.230;2022-11-14T07:41:10;100764.31;;;5.59;96.83
37610;BME280;23457;51.966;8.230;2022-11-14T07:43:55;100756.69;;;5.62;95.91
37610;BME280;23457;51.966;8.230;2022-11-14T07:46:41;100757.59;;;5.62;96.04
37610;BME280;23457;51.966;8.230;2022-11-14T07:49:26;100750.13;;;5.70;96.26
37610;BME280;23457;51.966;8.230;2022-11-14T07:52:11;100752.47;;;5.88;94.81
37610;BME280;23457;51.966;8.230;2022-11-14T07:54:57;100747.41;;;5.89;95.25
37610;BME280;23457;51.966;8.230;2022-11-14T07:57:42;100744.00;;;5.90;93.94
37610;BME280;23457;51.966;8.230;2022-11-14T08:00:33;100745.03;;;6.21;93.35
37610;BME280;23457;51.966;8.230;2022-11-14T08:03:18;100736.38;;;5.93;94.99
37610;BME280;23457;51.966;8.230;2022-11-14T08:06:11;100748.56;;;6.23;93.49
37610;BME280;23457;51.966;8.230;2022-11-14T08:08:56;100756.16;;;6.18;93.12
37610;BME280;23457;51.966;8.230;2022-11-14T08:11:41;100741.50;;;6.17;93.31
37610;BME280;23457;51.966;8.230;2022-11-14T08:14:34;100743.50;;;6.26;94.09
37610;BME280;23457;51.966;8.230;2022-11-14T08:17:20;100743.47;;;6.24;92.70
37610;BME280;23457;51.966;8.230;2022-11-14T08:20:07;100747.72;;;6.49;92.34
37610;BME280;23457;51.966;8.230;2022-11-14T08:23:04;100751.94;;;6.72;90.54
37610;BME280;23457;51.966;8.230;2022-11-14T08:25:51;100755.53;;;7.04;89.56
37610;BME280;23457;51.966;8.230;2022-11-14T08:28:36;100737.63;;;7.10;88.61
37610;BME280;23457;51.966;8.230;2022-11-14T08:31:22;100736.78;;;7.11;88.80
37610;BME280;23457;51.966;8.230;2022-11-14T08:34:07;100737.50;;;7.36;87.75
37610;BME280;23457;51.966;8.230;2022-11-14T08:36:52;100742.56;;;7.61;86.51
37610;BME280;23457;51.966;8.230;2022-11-14T08:39:37;100732.19;;;7.60;86.59
37610;BME280;23457;51.966;8.230;2022-11-14T08:42:22;100740.84;;;7.62;86.29
37610;BME280;23457;51.966;8.230;2022-11-14T08:45:08;100736.19;;;7.80;86.22
37610;BME280;23457;51.966;8.230;2022-11-14T08:47:53;100748.22;;;7.78;86.01
37610;BME280;23457;51.966;8.230;2022-11-14T08:50:39;100749.63;;;7.98;85.28
37610;BME280;23457;51.966;8.230;2022-11-14T08:53:25;100750.28;;;7.91;85.35
37610;BME280;23457;51.966;8.230;2022-11-14T08:56:10;100754.38;;;8.14;84.61
37610;BME280;23457;51.966;8.230;2022-11-14T08:58:55;100746.50;;;8.10;84.06
37610;BME280;23457;51.966;8.230;2022-11-14T09:01:41;100746.47;;;8.08;84.55
37610;BME280;23457;51.966;8.230;2022-11-14T09:04:27;100749.00;;;8.07;84.66
37610;BME280;23457;51.966;8.230;2022-11-14T09:07:12;100741.69;;;8.25;84.19
37610;BME280;23457;51.966;8.230;2022-11-14T09:09:58;100740.81;;;8.23;84.17
37610;BME280;23457;51.966;8.230;2022-11-14T09:12:43;100745.13;;;8.24;83.32
37610;BME280;23457;51.966;8.230;2022-11-14T09:15:28;100735.72;;;8.27;83.62
37610;BME280;23457;51.966;8.230;2022-11-14T09:18:14;100735.63;;;8.24;83.33
37610;BME280;23457;51.966;8.230;2022-11-14T09:21:04;100744.94;;;8.49;83.07
37610;BME280;23457;51.966;8.230;2022-11-14T09:23:50;100750.81;;;8.78;81.97
37610;BME280;23457;51.966;8.230;2022-11-14T09:26:35;100753.03;;;8.63;82.99
37610;BME280;23457;51.966;8.230;2022-11-14T09:29:20;100740.19;;;8.66;81.89
37610;BME280;23457;51.966;8.230;2022-11-14T09:32:06;100740.84;;;8.57;82.72
37610;BME280;23457;51.966;8.230;2022-11-14T09:34:51;100751.63;;;8.76;81.56
37610;BME280;23457;51.966;8.230;2022-11-14T09:37:36;100733.88;;;8.92;81.18
37610;BME280;23457;51.966;8.230;2022-11-14T09:40:22;100737.66;;;9.07;81.24
37610;BME280;23457;51.966;8.230;2022-11-14T09:49:09;100726.06;;;9.30;78.29
37610;BME280;23457;51.966;8.230;2022-11-14T09:52:12;100722.50;;;9.25;79.11
37610;BME280;23457;51.966;8.230;2022-11-14T09:55:01;100708.84;;;9.32;79.31
37610;BME280;23457;51.966;8.230;2022-11-14T09:57:48;100705.16;;;9.21;78.57
37610;BME280;23457;51.966;8.230;2022-11-14T10:00:46;100707.44;;;9.48;77.93
37610;BME280;23457;51.966;8.230;2022-11-14T10:03:48;100719.56;;;9.50;78.12
37610;BME280;23457;51.966;8.230;2022-11-14T10:07:24;100696.00;;;9.40;78.78
37610;BME280;23457;51.966;8.230;2022-11-14T10:10:37;100686.78;;;9.54;77.77
37610;BME280;23457;51.966;8.230;2022-11-14T10:17:16;100686.97;;;9.63;77.60
37610;BME280;23457;51.966;8.230;2022-11-14T10:26:32;100682.06;;;9.78;77.58
37610;BME280;23457;51.966;8.230;2022-11-14T10:30:03;100681.28;;;9.82;77.40
37610;BME280;23457;51.966;8.230;2022-11-14T10:32:57;100686.28;;;10.18;75.78
37610;BME280;23457;51.966;8.230;2022-11-14T10:35:52;100690.38;;;10.07;76.25
37610;BME280;23457;51.966;8.230;2022-11-14T10:42:09;100691.88;;;10.43;74.83
37610;BME280;23457;51.966;8.230;2022-11-14T10:45:06;100696.19;;;10.42;75.62
37610;BME280;23457;51.966;8.230;2022-11-14T10:48:34;100679.25;;;10.65;73.86
37610;BME280;23457;51.966;8.230;2022-11-14T10:51:31;100672.84;;;10.44;74.21
37610;BME280;23457;51.966;8.230;2022-11-14T10:57:30;100700.59;;;10.46;73.97
37610;BME280;23457;51.966;8.230;2022-11-14T11:00:18;100706.91;;;10.60;73.84
37610;BME280;23457;51.966;8.230;2022-11-14T11:03:05;100703.81;;;10.86;74.54
37610;BME280;23457;51.966;8.230;2022-11-14T11:05:52;100697.06;;;10.98;74.70
37610;BME280;23457;51.966;8.230;2022-11-14T11:08:42;100674.91;;;11.29;72.85
37610;BME280;23457;51.966;8.230;2022-11-14T11:11:55;100677.38;;;11.17;74.06
37610;BME280;23457;51.966;8.230;2022-11-14T11:14:42;100667.91;;;11.22;72.43
37610;BME280;23457;51.966;8.230;2022-11-14T11:17:28;100666.28;;;11.32;72.99
37610;BME280;23457;51.966;8.230;2022-11-14T11:26:04;100665.66;;;11.54;73.15
37610;BME280;23457;51.966;8.230;2022-11-14T11:29:04;100678.03;;;11.73;71.72
37610;BME280;23457;51.966;8.230;2022-11-14T11:31:55;100677.25;;;11.76;70.88
37610;BME280;23457;51.966;8.230;2022-11-14T11:34:42;100689.13;;;11.56;71.67
37610;BME280;23457;51.966;8.230;2022-11-14T11:37:30;100679.03;;;11.81;70.97
37610;BME280;23457;51.966;8.230;2022-11-14T11:40:23;100680.97;;;12.01;70.89
37610;BME280;23457;51.966;8.230;2022-11-14T11:49:45;100674.03;;;12.04;69.46
37610;BME280;23457;51.966;8.230;2022-11-14T11:55:37;100666.31;;;12.12;71.10
37610;BME280;23457;51.966;8.230;2022-11-14T11:58:47;100665.47;;;12.14;68.59
37610;BME280;23457;51.966;8.230;2022-11-14T12:01:33;100650.13;;;12.54;69.40
37610;BME280;23457;51.966;8.230;2022-11-14T12:04:19;100646.81;;;12.76;67.63
37610;BME280;23457;51.966;8.230;2022-11-14T12:07:13;100649.53;;;12.98;66.87
37610;BME280;23457;51.966;8.230;2022-11-14T12:10:06;100644.25;;;12.87;63.71
37610;BME280;23457;51.966;8.230;2022-11-14T12:32:14;100621.53;;;12.68;65.23
37610;BME280;23457;51.966;8.230;2022-11-14T12:35:04;100628.31;;;12.38;65.99
37610;BME280;23457;51.966;8.230;2022-11-14T12:37:53;100625.53;;;12.15;68.63
37610;BME280;23457;51.966;8.230;2022-11-14T12:40:47;100623.09;;;12.38;68.52
37610;BME280;23457;51.966;8.230;2022-11-14T12:43:38;100611.97;;;12.67;66.98
37610;BME280;23457;51.966;8.230;2022-11-14T12:46:25;100603.34;;;12.75;66.82
37610;BME280;23457;51.966;8.230;2022-11-14T12:49:37;100605.16;;;12.91;65.22
37610;BME280;23457;51.966;8.230;2022-11-14T13:10:28;100602.41;;;12.69;66.75
37610;BME280;23457;51.966;8.230;2022-11-14T13:13:15;100581.38;;;12.35;68.12
37610;BME280;23457;51.966;8.230;2022-11-14T13:16:25;100576.97;;;12.27;68.41
37610;BME280;23457;51.966;8.230;2022-11-14T13:19:33;100566.66;;;12.46;68.06
37610;BME280;23457;51.966;8.230;2022-11-14T13:22:42;100557.19;;;12.59;68.81
37610;BME280;23457;51.966;8.230;2022-11-14T13:25:27;100565.75;;;12.43;68.74
37610;BME280;23457;51.966;8.230;2022-11-14T13:28:51;100568.47;;;12.60;68.19
37610;BME280;23457;51.966;8.230;2022-11-14T13:31:46;100562.94;;;12.09;69.94
37610;BME280;23457;51.966;8.230;2022-11-14T13:44:22;100551.06;;;12.49;68.98
37610;BME280;23457;51.966;8.230;2022-11-14T13:47:28;100547.44;;;12.25;71.06
37610;BME280;23457;51.966;8.230;2022-11-14T13:50:31;100542.84;;;11.89;73.11
37610;BME280;23457;51.966;8.230;2022-11-14T13:53:23;100540.41;;;12.16;72.86
37610;BME280;23457;51.966;8.230;2022-11-14T13:56:28;100543.09;;;12.25;72.44
37610;BME280;23457;51.966;8.230;2022-11-14T14:02:27;100523.09;;;12.23;72.17
37610;BME280;23457;51.966;8.230;2022-11-14T14:06:09;100524.78;;;12.13;72.75
37610;BME280;23457;51.966;8.230;2022-11-14T14:17:05;100506.56;;;12.19;72.88
37610;BME280;23457;51.966;8.230;2022-11-14T14:22:59;100494.47;;;12.33;72.90
37610;BME280;23457;51.966;8.230;2022-11-14T14:28:56;100510.97;;;12.29;73.39
37610;BME280;23457;51.966;8.230;2022-11-14T14:31:49;100504.06;;;12.37;73.02
37610;BME280;23457;51.966;8.230;2022-11-14T14:34:35;100513.41;;;12.05;73.84
37610;BME280;23457;51.966;8.230;2022-11-14T14:37:27;100501.16;;;11.92;74.39
37610;BME280;23457;51.966;8.230;2022-11-14T14:43:19;100497.66;;;11.83;75.00
37610;BME280;23457;51.966;8.230;2022-11-14T14:46:07;100497.66;;;11.87;74.65
37610;BME280;23457;51.966;8.230;2022-11-14T14:48:53;100501.09;;;11.81;74.25
37610;BME280;23457;51.966;8.230;2022-11-14T14:51:39;100500.25;;;11.83;74.35
37610;BME280;23457;51.966;8.230;2022-11-14T14:54:28;100502.03;;;11.91;74.46
37610;BME280;23457;51.966;8.230;2022-11-14T14:57:17;100508.97;;;11.87;74.73
37610;BME280;23457;51.966;8.230;2022-11-14T15:00:19;100511.44;;;11.73;74.99
37610;BME280;23457;51.966;8.230;2022-11-14T15:03:08;100511.28;;;11.58;75.82
37610;BME280;23457;51.966;8.230;2022-11-14T15:06:01;100496.63;;;11.65;75.32
37610;BME280;23457;51.966;8.230;2022-11-14T15:08:48;100518.34;;;11.71;75.83
37610;BME280;23457;51.966;8.230;2022-11-14T15:11:35;100514.69;;;11.48;76.84
37610;BME280;23457;51.966;8.230;2022-11-14T15:14:26;100509.50;;;11.51;76.59
37610;BME280;23457;51.966;8.230;2022-11-14T15:17:13;100502.59;;;11.56;76.25
37610;BME280;23457;51.966;8.230;2022-11-14T15:19:59;100507.75;;;11.48;77.07
37610;BME280;23457;51.966;8.230;2022-11-14T15:23:01;100510.25;;;11.41;77.25
37610;BME280;23457;51.966;8.230;2022-11-14T15:25:47;100513.81;;;11.49;77.12
37610;BME280;23457;51.966;8.230;2022-11-14T15:28:32;100493.91;;;11.54;76.60
37610;BME280;23457;51.966;8.230;2022-11-14T15:31:19;100484.91;;;11.19;78.10
37610;BME280;23457;51.966;8.230;2022-11-14T15:34:27;100476.28;;;11.24;78.09
37610;BME280;23457;51.966;8.230;2022-11-14T15:40:15;100460.41;;;10.95;79.86
37610;BME280;23457;51.966;8.230;2022-11-14T15:49:24;100453.59;;;11.09;79.02
37610;BME280;23457;51.966;8.230;2022-11-14T15:52:21;100452.88;;;11.24;78.59
37610;BME280;23457;51.966;8.230;2022-11-14T15:55:17;100464.09;;;11.19;78.25
37610;BME280;23457;51.966;8.230;2022-11-14T15:58:02;100476.00;;;10.95;79.56
37610;BME280;23457;51.966;8.230;2022-11-14T16:01:14;100471.81;;;11.09;79.42
37610;BME280;23457;51.966;8.230;2022-11-14T16:04:03;100475.97;;;10.92;79.47
37610;BME280;23457;51.966;8.230;2022-11-14T16:06:49;100470.00;;;11.04;79.09
37610;BME280;23457;51.966;8.230;2022-11-14T16:09:34;100465.50;;;10.86;79.53
37610;BME280;23457;51.966;8.230;2022-11-14T16:12:20;100463.88;;;10.96;79.81
37610;BME280;23457;51.966;8.230;2022-11-14T16:15:05;100459.47;;;10.90;79.44
37610;BME280;23457;51.966;8.230;2022-11-14T16:17:50;100461.22;;;10.91;79.84
37610;BME280;23457;51.966;8.230;2022-11-14T16:20:36;100454.31;;;10.95;79.45
37610;BME280;23457;51.966;8.230;2022-11-14T16:23:23;100447.34;;;10.88;79.86
37610;BME280;23457;51.966;8.230;2022-11-14T16:26:08;100456.06;;;10.96;79.49
37610;BME280;23457;51.966;8.230;2022-11-14T16:28:53;100448.31;;;10.99;79.47
37610;BME280;23457;51.966;8.230;2022-11-14T16:31:41;100443.00;;;10.91;79.51
37610;BME280;23457;51.966;8.230;2022-11-14T16:34:26;100448.22;;;10.91;79.83
37610;BME280;23457;51.966;8.230;2022-11-14T16:37:12;100446.47;;;10.90;79.48
37610;BME280;23457;51.966;8.230;2022-11-14T16:39:58;100448.00;;;10.70;80.93
37610;BME280;23457;51.966;8.230;2022-11-14T16:42:45;100439.25;;;10.65;81.57
37610;BME280;23457;51.966;8.230;2022-11-14T16:45:30;100434.94;;;10.67;81.30
37610;BME280;23457;51.966;8.230;2022-11-14T16:48:15;100444.63;;;10.80;80.40